createdAt,value
2023-04-11T00:01:07.551Z,12.29
2023-04-11T00:04:11.385Z,12.25
2023-04-11T00:07:14.494Z,12.18
2023-04-11T00:10:16.256Z,12.15
2023-04-11T00:13:19.648Z,12.09
2023-04-11T00:16:21.398Z,12.06
2023-04-11T00:19:23.417Z,12.15
2023-04-11T00:22:27.666Z,12.15
2023-04-11T00:25:30.330Z,12.16
2023-04-11T00:28:32.181Z,12.09
2023-04-11T00:31:34.858Z,12.06
2023-04-11T00:34:36.971Z,11.95
2023-04-11T00:37:44.182Z,11.80
2023-04-11T00:40:46.391Z,11.73
2023-04-11T00:43:50.613Z,11.73
2023-04-11T00:46:53.476Z,11.63
2023-04-11T00:49:55.505Z,11.48
2023-04-11T00:52:59.149Z,11.64
2023-04-11T00:56:01.101Z,11.57
2023-04-11T00:59:03.414Z,11.48
2023-04-11T01:02:06.279Z,11.47
2023-04-11T01:05:09.492Z,11.41
2023-04-11T01:08:13.645Z,11.30
2023-04-11T01:11:19.989Z,11.22
2023-04-11T01:14:22.853Z,11.15
2023-04-11T01:17:25.809Z,11.10
2023-04-11T01:20:28.650Z,11.17
2023-04-11T01:23:34.196Z,11.19
2023-04-11T01:26:36.615Z,11.19
2023-04-11T01:29:38.694Z,10.75
2023-04-11T01:32:40.983Z,10.52
2023-04-11T01:35:43.717Z,10.36
2023-04-11T01:38:46.898Z,10.17
2023-04-11T01:41:50.917Z,9.97
2023-04-11T01:44:55.391Z,10.04
2023-04-11T01:47:57.863Z,10.12
2023-04-11T01:50:59.763Z,10.19
2023-04-11T01:54:02.905Z,10.22
2023-04-11T01:57:06.762Z,10.02
2023-04-11T02:00:12.651Z,10.10
2023-04-11T02:03:18.871Z,9.99
2023-04-11T02:06:20.757Z,9.84
2023-04-11T02:09:23.873Z,9.72
2023-04-11T02:12:27.337Z,9.55
2023-04-11T02:15:29.284Z,9.39
2023-04-11T02:18:32.575Z,9.21
2023-04-11T02:21:34.468Z,9.22
2023-04-11T02:24:38.027Z,9.09
2023-04-11T02:27:39.698Z,9.02
2023-04-11T02:30:41.793Z,9.07
2023-04-11T02:33:43.777Z,8.99
2023-04-11T02:36:45.840Z,9.03
2023-04-11T02:39:48.989Z,8.89
2023-04-11T02:42:51.017Z,8.99
2023-04-11T02:46:02.002Z,8.94
2023-04-11T02:49:12.271Z,8.95
2023-04-11T02:52:14.232Z,8.99
2023-04-11T02:55:17.668Z,8.84
2023-04-11T02:58:20.342Z,8.69
2023-04-11T03:01:23.514Z,8.70
2023-04-11T03:04:25.368Z,8.73
2023-04-11T03:07:34.820Z,8.70
2023-04-11T03:10:38.272Z,8.70
2023-04-11T03:13:43.763Z,8.71
2023-04-11T03:16:45.797Z,8.67
2023-04-11T03:19:49.238Z,8.86
2023-04-11T03:22:51.195Z,8.86
2023-04-11T03:25:56.320Z,8.73
2023-04-11T03:28:58.980Z,8.69
2023-04-11T03:32:05.479Z,8.69
2023-04-11T03:35:10.374Z,8.71
2023-04-11T03:38:15.655Z,8.73
2023-04-11T03:41:22.009Z,8.74
2023-04-11T03:44:25.359Z,8.67
2023-04-11T03:47:27.215Z,8.67
2023-04-11T03:50:30.327Z,8.82
2023-04-11T03:53:36.330Z,8.69
2023-04-11T03:56:53.162Z,8.76
2023-04-11T03:59:58.780Z,8.73
2023-04-11T04:03:00.909Z,8.70
2023-04-11T04:06:03.173Z,8.49
2023-04-11T04:09:05.200Z,8.48
2023-04-11T04:12:21.580Z,8.70
2023-04-11T04:15:42.862Z,8.70
2023-04-11T04:18:47.257Z,8.70
2023-04-11T04:21:49.981Z,8.65
2023-04-11T04:24:53.319Z,8.44
2023-04-11T04:28:00.897Z,8.43
2023-04-11T04:31:09.494Z,8.52
2023-04-11T04:34:21.988Z,8.63
2023-04-11T04:37:29.073Z,8.42
2023-04-11T04:40:40.240Z,8.56
2023-04-11T04:43:44.417Z,8.37
2023-04-11T04:46:53.278Z,8.57
2023-04-11T04:49:56.560Z,8.72
2023-04-11T04:52:58.421Z,8.74
2023-04-11T04:56:00.689Z,8.74
2023-04-11T04:59:08.175Z,8.67
2023-04-11T05:02:10.764Z,8.66
2023-04-11T05:05:13.944Z,8.73
2023-04-11T05:08:20.507Z,8.70
2023-04-11T05:11:23.477Z,8.40
2023-04-11T05:14:27.904Z,8.48
2023-04-11T05:17:30.052Z,8.65
2023-04-11T05:20:32.667Z,8.69
2023-04-11T05:23:35.138Z,8.74
2023-04-11T05:27:32.939Z,8.55
2023-04-11T05:30:36.418Z,8.50
2023-04-11T05:33:39.259Z,8.53
2023-04-11T05:36:42.063Z,8.60
2023-04-11T05:39:44.011Z,8.81
2023-04-11T05:42:47.064Z,8.68
2023-04-11T05:45:50.569Z,8.74
2023-04-11T05:48:52.459Z,8.64
2023-04-11T05:51:54.321Z,8.88
2023-04-11T05:54:56.210Z,8.80
2023-04-11T05:57:57.954Z,8.58
2023-04-11T06:01:01.100Z,8.70
2023-04-11T06:04:23.099Z,8.88
2023-04-11T06:07:27.469Z,8.80
2023-04-11T06:10:30.606Z,8.86
2023-04-11T06:13:32.503Z,8.97
2023-04-11T06:16:36.968Z,9.05
2023-04-11T06:19:39.923Z,9.23
2023-04-11T06:22:41.862Z,9.17
2023-04-11T06:25:43.880Z,9.25
2023-04-11T06:28:45.937Z,9.37
2023-04-11T06:31:49.239Z,9.49
2023-04-11T06:34:51.056Z,9.36
2023-04-11T06:37:52.961Z,9.50
2023-04-11T06:40:56.296Z,9.60
2023-04-11T06:43:58.469Z,9.58
2023-04-11T06:47:03.321Z,9.55
2023-04-11T06:50:06.248Z,9.66
2023-04-11T06:53:08.031Z,9.62
2023-04-11T06:56:10.779Z,9.75
2023-04-11T06:59:12.455Z,9.98
2023-04-11T07:02:15.732Z,10.12
2023-04-11T07:05:17.779Z,9.83
2023-04-11T07:08:19.743Z,9.85
2023-04-11T07:11:21.983Z,9.74
2023-04-11T07:14:23.756Z,9.60
2023-04-11T07:17:26.940Z,9.62
2023-04-11T07:20:28.948Z,9.68
2023-04-11T07:23:30.645Z,9.79
2023-04-11T07:26:32.988Z,9.80
2023-04-11T07:29:34.824Z,9.86
2023-04-11T07:32:37.873Z,10.05
2023-04-11T07:35:39.618Z,10.03
2023-04-11T07:38:41.941Z,10.33
2023-04-11T07:41:45.067Z,10.59
2023-04-11T07:44:46.919Z,10.39
2023-04-11T07:47:50.260Z,10.46
2023-04-11T07:50:52.818Z,10.03
2023-04-11T07:53:54.752Z,10.52
2023-04-11T07:56:57.152Z,10.77
2023-04-11T08:00:00.062Z,10.73
2023-04-11T08:03:05.517Z,10.67
2023-04-11T08:06:09.311Z,10.93
2023-04-11T08:09:11.125Z,10.92
2023-04-11T08:12:12.930Z,11.11
2023-04-11T08:15:14.814Z,11.04
2023-04-11T08:18:21.409Z,10.93
2023-04-11T08:21:25.048Z,11.04
2023-04-11T08:24:27.116Z,11.24
2023-04-11T08:27:28.802Z,11.36
2023-04-11T08:30:30.754Z,11.18
2023-04-11T08:33:33.866Z,11.20
2023-04-11T08:36:35.705Z,11.08
2023-04-11T08:39:37.694Z,11.04
2023-04-11T08:42:39.386Z,11.24
2023-04-11T08:45:41.911Z,11.03
2023-04-11T08:48:45.977Z,11.15
2023-04-11T08:51:49.054Z,11.32
2023-04-11T08:54:56.278Z,11.38
2023-04-11T08:58:03.518Z,11.41
2023-04-11T09:01:32.959Z,11.33
2023-04-11T09:04:43.608Z,11.26
2023-04-11T09:07:48.397Z,11.47
2023-04-11T09:10:49.945Z,11.74
2023-04-11T09:14:05.896Z,12.12
2023-04-11T09:17:16.784Z,11.74
2023-04-11T09:20:21.023Z,11.53
2023-04-11T09:23:25.459Z,11.05
2023-04-11T09:26:30.389Z,10.98
2023-04-11T09:29:38.025Z,10.99
2023-04-11T09:32:40.027Z,11.07
2023-04-11T09:35:43.781Z,11.08
2023-04-11T09:38:45.632Z,11.53
2023-04-11T09:41:47.957Z,11.31
2023-04-11T09:44:49.749Z,11.42
2023-04-11T09:47:53.737Z,11.51
2023-04-11T09:50:58.888Z,11.35
2023-04-11T09:54:03.434Z,11.29
2023-04-11T09:57:05.993Z,11.90
2023-04-11T10:00:17.038Z,11.88
2023-04-11T10:03:20.927Z,12.38
2023-04-11T10:06:34.331Z,12.24
2023-04-11T10:09:39.626Z,11.81
2023-04-11T10:12:42.413Z,11.14
2023-04-11T10:16:06.126Z,11.18
2023-04-11T10:19:23.986Z,11.56
2023-04-11T10:23:00.791Z,12.33
2023-04-11T10:26:02.771Z,11.89
2023-04-11T10:29:43.481Z,11.88
2023-04-11T10:33:09.828Z,10.85
2023-04-11T10:36:12.369Z,11.38
2023-04-11T10:39:15.944Z,11.68
2023-04-11T10:42:27.372Z,11.88
2023-04-11T10:45:30.334Z,12.02
2023-04-11T10:48:32.080Z,12.43
2023-04-11T10:51:34.696Z,12.33
2023-04-11T10:54:37.966Z,12.89
2023-04-11T10:58:03.848Z,12.68
2023-04-11T11:01:26.147Z,13.29
2023-04-11T11:04:34.806Z,13.22
2023-04-11T11:07:37.770Z,13.13
2023-04-11T11:10:42.404Z,13.34
2023-04-11T11:13:44.928Z,13.09
2023-04-11T11:16:46.707Z,13.41
2023-04-11T11:19:48.680Z,13.23
2023-04-11T11:23:01.249Z,13.54
2023-04-11T11:26:04.810Z,13.72
2023-04-11T11:29:06.727Z,13.96
2023-04-11T11:32:08.536Z,13.80
2023-04-11T11:35:13.649Z,14.50
2023-04-11T11:38:16.802Z,14.39
2023-04-11T11:41:20.091Z,15.44
2023-04-11T11:44:23.837Z,14.57
2023-04-11T11:47:27.184Z,13.41
2023-04-11T11:50:30.690Z,13.02
2023-04-11T11:53:32.556Z,12.59
2023-04-11T11:56:35.970Z,12.41
2023-04-11T11:59:38.056Z,12.14
2023-04-11T12:02:43.075Z,12.00
2023-04-11T12:05:45.268Z,11.76
2023-04-11T12:09:09.842Z,11.93
2023-04-11T12:12:16.146Z,12.33
2023-04-11T12:15:25.992Z,12.47
2023-04-11T12:18:28.865Z,12.90
2023-04-11T12:21:31.426Z,13.29
2023-04-11T12:24:33.104Z,13.59
2023-04-11T12:27:37.788Z,14.13
2023-04-11T12:30:39.752Z,15.00
2023-04-11T12:33:41.681Z,15.69
2023-04-11T12:36:43.741Z,15.55
2023-04-11T12:39:45.653Z,15.30
2023-04-11T12:42:56.760Z,14.82
2023-04-11T12:46:11.495Z,15.68
2023-04-11T12:49:13.319Z,15.22
2023-04-11T12:52:15.632Z,16.06
2023-04-11T12:55:17.528Z,14.34
2023-04-11T12:58:21.061Z,16.06
2023-04-11T13:01:23.652Z,15.94
2023-04-11T13:04:25.606Z,14.52
2023-04-11T13:07:27.610Z,14.85
2023-04-11T13:10:29.712Z,14.92
2023-04-11T13:13:33.162Z,15.44
2023-04-11T13:16:35.048Z,14.84
2023-04-11T13:19:38.473Z,14.87
2023-04-11T13:22:41.593Z,15.12
2023-04-11T13:25:43.678Z,14.34
2023-04-11T13:28:47.119Z,14.17
2023-04-11T13:31:49.269Z,13.66
2023-04-11T13:34:51.322Z,13.92
2023-04-11T13:37:53.458Z,13.03
2023-04-11T13:40:55.720Z,12.84
2023-04-11T13:43:59.242Z,13.26
2023-04-11T13:47:02.787Z,14.71
2023-04-11T13:50:06.252Z,15.21
2023-04-11T13:53:08.347Z,15.48
2023-04-11T13:56:11.459Z,15.52
2023-04-11T13:59:14.574Z,14.89
2023-04-11T14:02:16.499Z,16.45
2023-04-11T14:05:18.779Z,15.97
2023-04-11T14:08:20.959Z,16.17
2023-04-11T14:11:22.781Z,16.54
2023-04-11T14:14:25.783Z,17.50
2023-04-11T14:17:27.554Z,16.61
2023-04-11T14:20:30.014Z,15.19
2023-04-11T14:23:32.104Z,14.75
2023-04-11T14:26:33.929Z,15.14
2023-04-11T14:29:37.652Z,15.08
2023-04-11T14:32:40.686Z,15.32
2023-04-11T14:35:46.952Z,15.24
2023-04-11T14:38:49.108Z,15.07
2023-04-11T14:41:51.060Z,14.92
2023-04-11T14:44:54.379Z,14.50
2023-04-11T14:47:56.742Z,14.79
2023-04-11T14:51:02.650Z,14.63
2023-04-11T14:54:04.623Z,14.50
2023-04-11T14:57:06.624Z,13.94
2023-04-11T15:00:17.892Z,14.07
2023-04-11T15:03:20.173Z,13.99
2023-04-11T15:06:22.417Z,12.16
2023-04-11T15:09:24.248Z,11.23
2023-04-11T15:12:26.154Z,11.30
2023-04-11T15:15:29.735Z,10.35
2023-04-11T15:18:32.811Z,12.86
2023-04-11T15:21:34.511Z,14.65
2023-04-11T15:24:36.236Z,16.30
2023-04-11T15:27:38.193Z,16.49
2023-04-11T15:30:49.648Z,17.45
2023-04-11T15:33:52.234Z,17.01
2023-04-11T15:36:53.973Z,16.78
2023-04-11T15:39:57.747Z,16.00
2023-04-11T15:42:59.627Z,14.90
2023-04-11T15:46:06.718Z,13.91
2023-04-11T15:49:08.679Z,14.23
2023-04-11T15:52:11.855Z,13.70
2023-04-11T15:55:14.076Z,14.18
2023-04-11T15:58:16.325Z,14.19
2023-04-11T16:01:23.042Z,14.35
2023-04-11T16:04:25.823Z,14.10
2023-04-11T16:07:27.660Z,13.96
2023-04-11T16:10:32.450Z,14.10
2023-04-11T16:13:34.550Z,13.89
2023-04-11T16:16:37.948Z,14.13
2023-04-11T16:19:39.894Z,14.07
2023-04-11T16:22:41.573Z,14.16
2023-04-11T16:25:44.908Z,14.50
2023-04-11T16:28:49.462Z,14.23
2023-04-11T16:31:52.589Z,14.28
2023-04-11T16:34:55.130Z,14.40
2023-04-11T16:37:57.100Z,14.23
2023-04-11T16:41:00.231Z,14.10
2023-04-11T16:44:02.849Z,14.06
2023-04-11T16:47:06.022Z,14.05
2023-04-11T16:50:09.335Z,13.72
2023-04-11T16:53:11.035Z,13.77
2023-04-11T16:56:12.908Z,13.87
2023-04-11T16:59:16.003Z,13.47
2023-04-11T17:02:19.106Z,13.55
2023-04-11T17:05:23.849Z,13.56
2023-04-11T17:08:26.469Z,13.54
2023-04-11T17:11:28.423Z,13.43
2023-04-11T17:14:30.950Z,13.40
2023-04-11T17:17:34.200Z,13.19
2023-04-11T17:20:37.186Z,13.34
2023-04-11T17:23:43.014Z,13.36
2023-04-11T17:26:45.654Z,13.24
2023-04-11T17:29:47.545Z,13.10
2023-04-11T17:32:50.992Z,12.91
2023-04-11T17:35:52.847Z,12.93
2023-04-11T17:38:54.862Z,13.02
2023-04-11T17:41:57.415Z,12.87
2023-04-11T17:45:10.057Z,12.85
2023-04-11T17:48:20.400Z,12.73
2023-04-11T17:51:22.368Z,12.56
2023-04-11T17:54:25.666Z,12.16
2023-04-11T17:57:27.691Z,12.16
2023-04-11T18:00:31.948Z,12.21
2023-04-11T18:03:37.127Z,12.38
2023-04-11T18:06:39.081Z,12.41
2023-04-11T18:09:42.383Z,12.42
2023-04-11T18:12:48.224Z,12.35
2023-04-11T18:15:50.083Z,12.07
2023-04-11T18:18:56.945Z,11.91
2023-04-11T18:21:58.838Z,11.72
2023-04-11T18:25:03.290Z,11.64
2023-04-11T18:28:05.117Z,11.80
2023-04-11T18:31:07.277Z,11.65
2023-04-11T18:34:10.860Z,11.27
2023-04-11T18:37:12.935Z,11.14
2023-04-11T18:40:15.789Z,11.13
2023-04-11T18:43:17.884Z,10.86
2023-04-11T18:46:19.821Z,10.91
2023-04-11T18:49:24.194Z,10.89
2023-04-11T18:52:28.077Z,10.90
2023-04-11T18:55:30.835Z,10.74
2023-04-11T18:58:34.287Z,10.75
2023-04-11T19:01:36.573Z,10.69
2023-04-11T19:04:44.060Z,10.60
2023-04-11T19:07:46.034Z,10.63
2023-04-11T19:10:48.166Z,10.59
2023-04-11T19:13:54.201Z,10.32
2023-04-11T19:16:56.676Z,10.22
2023-04-11T19:20:01.774Z,10.25
2023-04-11T19:23:03.581Z,10.25
2023-04-11T19:26:06.202Z,10.56
2023-04-11T19:29:07.931Z,10.28
2023-04-11T19:32:09.940Z,10.37
2023-04-11T19:35:14.195Z,10.49
2023-04-11T19:38:16.015Z,10.88
2023-04-11T19:41:19.708Z,10.65
2023-04-11T19:44:21.657Z,10.41
2023-04-11T19:47:23.740Z,10.34
2023-04-11T19:50:27.089Z,10.12
2023-04-11T19:53:28.875Z,10.13
2023-04-11T19:56:30.982Z,10.19
2023-04-11T19:59:33.463Z,10.29
2023-04-11T20:02:36.622Z,10.31
2023-04-11T20:05:40.526Z,10.10
2023-04-11T20:08:44.972Z,10.20
2023-04-11T20:11:47.685Z,10.37
2023-04-11T20:14:49.434Z,10.55
2023-04-11T20:17:51.540Z,10.50
2023-04-11T20:20:54.973Z,10.81
2023-04-11T20:23:57.972Z,10.93
2023-04-11T20:26:59.768Z,11.05
2023-04-11T20:30:01.986Z,10.93
2023-04-11T20:33:04.133Z,10.75
2023-04-11T20:36:09.044Z,10.72
2023-04-11T20:39:10.746Z,10.80
2023-04-11T20:42:12.702Z,10.89
2023-04-11T20:45:16.937Z,10.71
2023-04-11T20:48:19.823Z,10.74
2023-04-11T20:51:23.785Z,10.58
2023-04-11T20:54:26.389Z,10.75
2023-04-11T20:57:30.059Z,10.70
2023-04-11T21:00:32.189Z,10.67
2023-04-11T21:03:37.308Z,10.67
2023-04-11T21:06:41.107Z,10.73
2023-04-11T21:09:42.781Z,10.70
2023-04-11T21:12:51.544Z,10.80
2023-04-11T21:15:55.646Z,10.88
2023-04-11T21:18:57.300Z,10.75
2023-04-11T21:22:00.767Z,10.68
2023-04-11T21:25:03.986Z,10.75
2023-04-11T21:28:05.930Z,10.62
2023-04-11T21:31:08.133Z,10.65
2023-04-11T21:34:09.940Z,10.64
2023-04-11T21:37:13.005Z,10.72
2023-04-11T21:40:14.992Z,10.66
2023-04-11T21:43:16.999Z,10.47
2023-04-11T21:46:19.022Z,10.31
2023-04-11T21:49:20.989Z,10.19
2023-04-11T21:52:24.106Z,10.23
2023-04-11T21:55:26.007Z,10.15
2023-04-11T21:58:29.927Z,10.38
2023-04-11T22:01:32.113Z,10.34
2023-04-11T22:04:39.189Z,10.54
2023-04-11T22:07:47.621Z,10.52
2023-04-11T22:10:50.753Z,10.42
2023-04-11T22:13:52.744Z,10.38
2023-04-11T22:16:58.856Z,10.48
2023-04-11T22:20:00.750Z,10.57
2023-04-11T22:23:06.065Z,10.49
2023-04-11T22:26:07.761Z,10.50
2023-04-11T22:29:12.068Z,10.47
2023-04-11T22:32:13.928Z,10.44
2023-04-11T22:35:18.450Z,10.63
2023-04-11T22:38:21.627Z,10.69
2023-04-11T22:41:24.132Z,10.62
2023-04-11T22:44:25.838Z,10.60
2023-04-11T22:47:29.097Z,10.59
2023-04-11T22:50:32.214Z,10.49
2023-04-11T22:53:44.511Z,10.53
2023-04-11T22:56:48.553Z,10.71
2023-04-11T22:59:50.528Z,10.77
2023-04-11T23:02:52.835Z,10.75
2023-04-11T23:05:54.682Z,10.73
2023-04-11T23:08:57.868Z,10.58
2023-04-11T23:11:59.709Z,10.43
2023-04-11T23:15:08.683Z,10.46
2023-04-11T23:18:10.314Z,10.45
2023-04-11T23:21:15.456Z,10.28
2023-04-11T23:24:19.081Z,10.10
2023-04-11T23:27:21.898Z,10.22
2023-04-11T23:30:23.991Z,10.32
2023-04-11T23:33:26.779Z,10.36
2023-04-11T23:36:29.063Z,10.40
2023-04-11T23:39:32.760Z,10.42
2023-04-11T23:42:34.519Z,10.43
2023-04-11T23:45:36.606Z,10.46
2023-04-11T23:48:38.496Z,10.67
2023-04-11T23:51:40.393Z,10.70
2023-04-11T23:54:43.584Z,10.47
2023-04-11T23:57:45.316Z,10.41
